sensor_id;sensor_type;location;lat;lon;timestamp;P1;durP1;ratioP1;P2;durP2;ratioP2
22973;SDS011;11653;50.848;4.584;2023-03-01T00:00:45;27.00;;;15.80;;
22973;SDS011;11653;50.848;4.584;2023-03-01T00:03:11;26.53;;;14.63;;
22973;SDS011;11653;50.848;4.584;2023-03-01T00:05:43;25.17;;;14.70;;
22973;SDS011;11653;50.848;4.584;2023-03-01T00:08:12;24.40;;;14.43;;
22973;SDS011;11653;50.848;4.584;2023-03-01T00:10:38;24.17;;;14.43;;
22973;SDS011;11653;50.848;4.584;2023-03-01T00:13:03;18.03;;;13.33;;
22973;SDS011;11653;50.848;4.584;2023-03-01T00:15:31;20.90;;;14.10;;
22973;SDS011;11653;50.848;4.584;2023-03-01T00:17:57;22.33;;;15.30;;
22973;SDS011;11653;50.848;4.584;2023-03-01T00:20:22;23.47;;;14.53;;
22973;SDS011;11653;50.848;4.584;2023-03-01T00:22:48;22.60;;;14.57;;
22973;SDS011;11653;50.848;4.584;2023-03-01T00:25:14;23.87;;;14.33;;
22973;SDS011;11653;50.848;4.584;2023-03-01T00:27:39;27.23;;;14.77;;
22973;SDS011;11653;50.848;4.584;2023-03-01T00:30:05;25.93;;;15.13;;
22973;SDS011;11653;50.848;4.584;2023-03-01T00:32:31;24.20;;;14.33;;
22973;SDS011;11653;50.848;4.584;2023-03-01T00:34:57;21.23;;;14.87;;
22973;SDS011;11653;50.848;4.584;2023-03-01T00:37:23;23.47;;;13.30;;
22973;SDS011;11653;50.848;4.584;2023-03-01T00:39:48;21.87;;;14.37;;
22973;SDS011;11653;50.848;4.584;2023-03-01T00:42:15;22.03;;;14.10;;
22973;SDS011;11653;50.848;4.584;2023-03-01T00:44:41;23.47;;;13.70;;
22973;SDS011;11653;50.848;4.584;2023-03-01T00:47:06;23.90;;;13.83;;
22973;SDS011;11653;50.848;4.584;2023-03-01T00:49:32;23.87;;;13.97;;
22973;SDS011;11653;50.848;4.584;2023-03-01T00:51:59;24.67;;;14.27;;
22973;SDS011;11653;50.848;4.584;2023-03-01T00:54:25;20.90;;;13.97;;
22973;SDS011;11653;50.848;4.584;2023-03-01T00:56:50;23.17;;;14.73;;
22973;SDS011;11653;50.848;4.584;2023-03-01T00:59:16;23.43;;;14.63;;
22973;SDS011;11653;50.848;4.584;2023-03-01T01:01:41;22.50;;;14.17;;
22973;SDS011;11653;50.848;4.584;2023-03-01T01:04:08;20.90;;;13.93;;
22973;SDS011;11653;50.848;4.584;2023-03-01T01:06:38;25.37;;;14.17;;
22973;SDS011;11653;50.848;4.584;2023-03-01T01:09:07;22.33;;;13.90;;
22973;SDS011;11653;50.848;4.584;2023-03-01T01:11:34;21.87;;;13.90;;
22973;SDS011;11653;50.848;4.584;2023-03-01T01:14:04;21.63;;;14.10;;
22973;SDS011;11653;50.848;4.584;2023-03-01T01:16:29;22.27;;;14.03;;
22973;SDS011;11653;50.848;4.584;2023-03-01T01:18:56;23.07;;;13.73;;
22973;SDS011;11653;50.848;4.584;2023-03-01T01:21:22;21.90;;;13.97;;
22973;SDS011;11653;50.848;4.584;2023-03-01T01:23:49;22.57;;;14.07;;
22973;SDS011;11653;50.848;4.584;2023-03-01T01:26:16;23.53;;;14.13;;
22973;SDS011;11653;50.848;4.584;2023-03-01T01:28:47;20.87;;;13.63;;
22973;SDS011;11653;50.848;4.584;2023-03-01T01:31:13;24.37;;;13.43;;
22973;SDS011;11653;50.848;4.584;2023-03-01T01:33:39;24.17;;;14.30;;
22973;SDS011;11653;50.848;4.584;2023-03-01T01:36:05;20.20;;;13.40;;
22973;SDS011;11653;50.848;4.584;2023-03-01T01:38:32;22.27;;;14.17;;
22973;SDS011;11653;50.848;4.584;2023-03-01T01:40:58;26.60;;;14.17;;
22973;SDS011;11653;50.848;4.584;2023-03-01T01:43:25;23.43;;;14.67;;
22973;SDS011;11653;50.848;4.584;2023-03-01T01:45:58;24.73;;;14.43;;
22973;SDS011;11653;50.848;4.584;2023-03-01T01:48:39;22.67;;;14.03;;
22973;SDS011;11653;50.848;4.584;2023-03-01T01:51:15;27.67;;;14.90;;
22973;SDS011;11653;50.848;4.584;2023-03-01T01:53:45;23.30;;;14.53;;
22973;SDS011;11653;50.848;4.584;2023-03-01T01:56:16;22.77;;;15.07;;
22973;SDS011;11653;50.848;4.584;2023-03-01T01:58:44;23.07;;;13.50;;
22973;SDS011;11653;50.848;4.584;2023-03-01T02:01:12;21.90;;;14.30;;
22973;SDS011;11653;50.848;4.584;2023-03-01T02:03:38;25.03;;;15.20;;
22973;SDS011;11653;50.848;4.584;2023-03-01T02:06:17;23.53;;;14.43;;
22973;SDS011;11653;50.848;4.584;2023-03-01T02:08:45;23.47;;;14.40;;
22973;SDS011;11653;50.848;4.584;2023-03-01T02:11:14;23.60;;;15.20;;
22973;SDS011;11653;50.848;4.584;2023-03-01T02:13:40;22.00;;;14.03;;
22973;SDS011;11653;50.848;4.584;2023-03-01T02:16:11;22.20;;;13.67;;
22973;SDS011;11653;50.848;4.584;2023-03-01T02:18:39;24.33;;;14.90;;
22973;SDS011;11653;50.848;4.584;2023-03-01T02:23:52;21.97;;;13.53;;
22973;SDS011;11653;50.848;4.584;2023-03-01T02:26:23;24.10;;;13.50;;
22973;SDS011;11653;50.848;4.584;2023-03-01T02:29:17;24.93;;;14.33;;
22973;SDS011;11653;50.848;4.584;2023-03-01T02:31:43;20.50;;;13.47;;
22973;SDS011;11653;50.848;4.584;2023-03-01T02:34:15;25.53;;;14.07;;
22973;SDS011;11653;50.848;4.584;2023-03-01T02:36:53;24.73;;;14.27;;
22973;SDS011;11653;50.848;4.584;2023-03-01T02:39:26;21.50;;;12.87;;
22973;SDS011;11653;50.848;4.584;2023-03-01T02:42:12;23.87;;;13.87;;
22973;SDS011;11653;50.848;4.584;2023-03-01T02:44:41;24.43;;;14.83;;
22973;SDS011;11653;50.848;4.584;2023-03-01T02:47:07;23.53;;;13.90;;
22973;SDS011;11653;50.848;4.584;2023-03-01T02:49:34;22.67;;;12.77;;
22973;SDS011;11653;50.848;4.584;2023-03-01T02:52:22;20.83;;;12.67;;
22973;SDS011;11653;50.848;4.584;2023-03-01T02:55:06;22.13;;;14.10;;
22973;SDS011;11653;50.848;4.584;2023-03-01T02:57:36;25.60;;;14.03;;
22973;SDS011;11653;50.848;4.584;2023-03-01T03:00:07;21.63;;;13.87;;
22973;SDS011;11653;50.848;4.584;2023-03-01T03:02:46;20.23;;;12.67;;
22973;SDS011;11653;50.848;4.584;2023-03-01T03:05:14;21.10;;;12.53;;
22973;SDS011;11653;50.848;4.584;2023-03-01T03:07:45;23.47;;;13.70;;
22973;SDS011;11653;50.848;4.584;2023-03-01T03:10:14;24.17;;;13.80;;
22973;SDS011;11653;50.848;4.584;2023-03-01T03:12:44;25.53;;;13.70;;
22973;SDS011;11653;50.848;4.584;2023-03-01T03:15:15;24.47;;;13.27;;
22973;SDS011;11653;50.848;4.584;2023-03-01T03:17:41;21.93;;;13.40;;
22973;SDS011;11653;50.848;4.584;2023-03-01T03:20:08;21.27;;;13.17;;
22973;SDS011;11653;50.848;4.584;2023-03-01T03:22:37;21.53;;;13.60;;
22973;SDS011;11653;50.848;4.584;2023-03-01T03:25:07;20.47;;;13.47;;
22973;SDS011;11653;50.848;4.584;2023-03-01T03:27:36;19.33;;;12.67;;
22973;SDS011;11653;50.848;4.584;2023-03-01T03:30:04;19.33;;;13.13;;
22973;SDS011;11653;50.848;4.584;2023-03-01T03:32:35;21.87;;;14.57;;
22973;SDS011;11653;50.848;4.584;2023-03-01T03:35:02;21.30;;;14.00;;
22973;SDS011;11653;50.848;4.584;2023-03-01T03:37:37;24.03;;;13.77;;
22973;SDS011;11653;50.848;4.584;2023-03-01T03:40:22;21.23;;;13.47;;
22973;SDS011;11653;50.848;4.584;2023-03-01T03:42:48;26.40;;;14.10;;
22973;SDS011;11653;50.848;4.584;2023-03-01T03:45:15;23.33;;;13.90;;
22973;SDS011;11653;50.848;4.584;2023-03-01T03:47:41;22.60;;;14.17;;
22973;SDS011;11653;50.848;4.584;2023-03-01T03:50:07;27.13;;;14.40;;
22973;SDS011;11653;50.848;4.584;2023-03-01T03:52:37;24.80;;;13.67;;
22973;SDS011;11653;50.848;4.584;2023-03-01T03:55:03;25.50;;;14.07;;
22973;SDS011;11653;50.848;4.584;2023-03-01T03:57:37;22.23;;;13.73;;
22973;SDS011;11653;50.848;4.584;2023-03-01T04:00:04;20.03;;;13.27;;
22973;SDS011;11653;50.848;4.584;2023-03-01T04:02:37;23.67;;;15.17;;
22973;SDS011;11653;50.848;4.584;2023-03-01T04:05:07;21.73;;;13.07;;
22973;SDS011;11653;50.848;4.584;2023-03-01T04:07:37;25.50;;;14.70;;
22973;SDS011;11653;50.848;4.584;2023-03-01T04:10:04;22.03;;;13.63;;
22973;SDS011;11653;50.848;4.584;2023-03-01T04:12:31;23.77;;;13.40;;
22973;SDS011;11653;50.848;4.584;2023-03-01T04:14:59;23.27;;;13.17;;
22973;SDS011;11653;50.848;4.584;2023-03-01T04:17:37;23.30;;;13.93;;
22973;SDS011;11653;50.848;4.584;2023-03-01T04:20:11;20.87;;;13.37;;
22973;SDS011;11653;50.848;4.584;2023-03-01T04:22:42;22.07;;;13.47;;
22973;SDS011;11653;50.848;4.584;2023-03-01T04:25:12;21.63;;;13.30;;
22973;SDS011;11653;50.848;4.584;2023-03-01T04:27:39;29.23;;;16.17;;
22973;SDS011;11653;50.848;4.584;2023-03-01T04:30:06;22.67;;;14.07;;
22973;SDS011;11653;50.848;4.584;2023-03-01T04:32:32;24.53;;;14.13;;
22973;SDS011;11653;50.848;4.584;2023-03-01T04:34:58;23.37;;;13.50;;
22973;SDS011;11653;50.848;4.584;2023-03-01T04:37:24;27.17;;;14.27;;
22973;SDS011;11653;50.848;4.584;2023-03-01T04:39:50;23.67;;;14.23;;
22973;SDS011;11653;50.848;4.584;2023-03-01T04:42:17;23.13;;;14.43;;
22973;SDS011;11653;50.848;4.584;2023-03-01T04:44:43;22.63;;;13.67;;
22973;SDS011;11653;50.848;4.584;2023-03-01T04:47:10;22.50;;;13.63;;
22973;SDS011;11653;50.848;4.584;2023-03-01T04:49:35;24.13;;;14.63;;
22973;SDS011;11653;50.848;4.584;2023-03-01T04:52:01;26.77;;;15.03;;
22973;SDS011;11653;50.848;4.584;2023-03-01T04:54:28;20.53;;;13.33;;
22973;SDS011;11653;50.848;4.584;2023-03-01T04:56:57;22.50;;;13.23;;
22973;SDS011;11653;50.848;4.584;2023-03-01T04:59:23;22.30;;;13.77;;
22973;SDS011;11653;50.848;4.584;2023-03-01T05:01:49;22.70;;;13.87;;
22973;SDS011;11653;50.848;4.584;2023-03-01T05:04:16;23.90;;;13.90;;
22973;SDS011;11653;50.848;4.584;2023-03-01T05:06:42;26.20;;;14.40;;
22973;SDS011;11653;50.848;4.584;2023-03-01T05:09:07;24.50;;;13.53;;
22973;SDS011;11653;50.848;4.584;2023-03-01T05:11:33;21.37;;;13.13;;
22973;SDS011;11653;50.848;4.584;2023-03-01T05:14:04;26.53;;;15.03;;
22973;SDS011;11653;50.848;4.584;2023-03-01T05:16:31;23.87;;;14.27;;
22973;SDS011;11653;50.848;4.584;2023-03-01T05:18:57;26.53;;;14.83;;
22973;SDS011;11653;50.848;4.584;2023-03-01T05:21:24;27.37;;;14.43;;
22973;SDS011;11653;50.848;4.584;2023-03-01T05:23:50;23.43;;;13.83;;
22973;SDS011;11653;50.848;4.584;2023-03-01T05:26:16;25.23;;;14.70;;
22973;SDS011;11653;50.848;4.584;2023-03-01T05:28:44;22.63;;;14.20;;
22973;SDS011;11653;50.848;4.584;2023-03-01T05:31:10;23.73;;;14.30;;
22973;SDS011;11653;50.848;4.584;2023-03-01T05:33:36;22.93;;;13.90;;
22973;SDS011;11653;50.848;4.584;2023-03-01T05:36:03;24.50;;;14.63;;
22973;SDS011;11653;50.848;4.584;2023-03-01T05:38:29;24.27;;;14.13;;
22973;SDS011;11653;50.848;4.584;2023-03-01T05:40:55;24.57;;;14.43;;
22973;SDS011;11653;50.848;4.584;2023-03-01T05:43:20;25.43;;;14.37;;
22973;SDS011;11653;50.848;4.584;2023-03-01T05:45:46;25.03;;;14.20;;
22973;SDS011;11653;50.848;4.584;2023-03-01T05:48:12;27.60;;;15.03;;
22973;SDS011;11653;50.848;4.584;2023-03-01T05:50:39;24.47;;;15.43;;
22973;SDS011;11653;50.848;4.584;2023-03-01T05:53:07;22.57;;;12.97;;
22973;SDS011;11653;50.848;4.584;2023-03-01T05:55:42;24.40;;;14.13;;
22973;SDS011;11653;50.848;4.584;2023-03-01T05:58:10;28.63;;;15.03;;
22973;SDS011;11653;50.848;4.584;2023-03-01T06:00:38;29.60;;;14.80;;
22973;SDS011;11653;50.848;4.584;2023-03-01T06:03:04;23.93;;;13.97;;
22973;SDS011;11653;50.848;4.584;2023-03-01T06:05:30;26.83;;;14.90;;
22973;SDS011;11653;50.848;4.584;2023-03-01T06:07:58;26.53;;;14.83;;
22973;SDS011;11653;50.848;4.584;2023-03-01T06:10:25;22.00;;;14.07;;
22973;SDS011;11653;50.848;4.584;2023-03-01T06:12:50;27.43;;;14.93;;
22973;SDS011;11653;50.848;4.584;2023-03-01T06:15:16;30.07;;;14.90;;
22973;SDS011;11653;50.848;4.584;2023-03-01T06:17:43;24.60;;;14.33;;
22973;SDS011;11653;50.848;4.584;2023-03-01T06:20:15;32.43;;;15.13;;
22973;SDS011;11653;50.848;4.584;2023-03-01T06:22:42;26.80;;;15.63;;
22973;SDS011;11653;50.848;4.584;2023-03-01T06:25:09;22.67;;;13.87;;
22973;SDS011;11653;50.848;4.584;2023-03-01T06:27:35;32.87;;;16.40;;
22973;SDS011;11653;50.848;4.584;2023-03-01T06:30:02;28.20;;;14.70;;
22973;SDS011;11653;50.848;4.584;2023-03-01T06:32:28;24.90;;;13.83;;
22973;SDS011;11653;50.848;4.584;2023-03-01T06:34:55;25.60;;;15.27;;
22973;SDS011;11653;50.848;4.584;2023-03-01T06:37:20;25.70;;;15.17;;
22973;SDS011;11653;50.848;4.584;2023-03-01T06:39:46;27.13;;;14.83;;
22973;SDS011;11653;50.848;4.584;2023-03-01T06:42:12;22.03;;;14.23;;
22973;SDS011;11653;50.848;4.584;2023-03-01T06:44:38;22.40;;;14.33;;
22973;SDS011;11653;50.848;4.584;2023-03-01T06:47:04;26.50;;;14.83;;
22973;SDS011;11653;50.848;4.584;2023-03-01T06:49:29;24.43;;;13.70;;
22973;SDS011;11653;50.848;4.584;2023-03-01T06:51:55;23.80;;;14.77;;
22973;SDS011;11653;50.848;4.584;2023-03-01T06:54:21;26.90;;;14.30;;
22973;SDS011;11653;50.848;4.584;2023-03-01T06:56:48;23.20;;;14.30;;
22973;SDS011;11653;50.848;4.584;2023-03-01T06:59:14;28.70;;;14.60;;
22973;SDS011;11653;50.848;4.584;2023-03-01T07:01:40;24.90;;;15.70;;
22973;SDS011;11653;50.848;4.584;2023-03-01T07:04:05;25.63;;;14.53;;
22973;SDS011;11653;50.848;4.584;2023-03-01T07:06:31;24.97;;;15.60;;
22973;SDS011;11653;50.848;4.584;2023-03-01T07:08:57;60.33;;;34.37;;
22973;SDS011;11653;50.848;4.584;2023-03-01T07:11:22;31.00;;;16.43;;
22973;SDS011;11653;50.848;4.584;2023-03-01T07:13:48;26.77;;;14.50;;
22973;SDS011;11653;50.848;4.584;2023-03-01T07:16:14;19.37;;;13.60;;
22973;SDS011;11653;50.848;4.584;2023-03-01T07:18:40;22.97;;;13.17;;
22973;SDS011;11653;50.848;4.584;2023-03-01T07:21:06;21.83;;;13.03;;
22973;SDS011;11653;50.848;4.584;2023-03-01T07:23:33;18.40;;;12.60;;
22973;SDS011;11653;50.848;4.584;2023-03-01T07:25:59;24.30;;;12.13;;
22973;SDS011;11653;50.848;4.584;2023-03-01T07:28:25;18.80;;;11.27;;
22973;SDS011;11653;50.848;4.584;2023-03-01T07:30:52;15.67;;;10.87;;
22973;SDS011;11653;50.848;4.584;2023-03-01T07:33:18;16.87;;;11.33;;
22973;SDS011;11653;50.848;4.584;2023-03-01T07:35:43;14.27;;;10.57;;
22973;SDS011;11653;50.848;4.584;2023-03-01T07:38:09;14.47;;;10.20;;
22973;SDS011;11653;50.848;4.584;2023-03-01T07:40:35;15.10;;;10.20;;
22973;SDS011;11653;50.848;4.584;2023-03-01T07:43:00;15.97;;;11.03;;
22973;SDS011;11653;50.848;4.584;2023-03-01T07:45:26;14.83;;;10.17;;
22973;SDS011;11653;50.848;4.584;2023-03-01T07:47:53;15.17;;;10.63;;
22973;SDS011;11653;50.848;4.584;2023-03-01T07:50:19;12.97;;;9.47;;
22973;SDS011;11653;50.848;4.584;2023-03-01T07:52:46;14.00;;;10.40;;
22973;SDS011;11653;50.848;4.584;2023-03-01T07:55:13;11.53;;;9.47;;
22973;SDS011;11653;50.848;4.584;2023-03-01T07:57:39;13.23;;;9.93;;
22973;SDS011;11653;50.848;4.584;2023-03-01T08:00:06;16.27;;;10.23;;
22973;SDS011;11653;50.848;4.584;2023-03-01T08:02:33;15.20;;;10.40;;
22973;SDS011;11653;50.848;4.584;2023-03-01T08:04:58;15.87;;;10.47;;
22973;SDS011;11653;50.848;4.584;2023-03-01T08:07:24;12.47;;;10.33;;
22973;SDS011;11653;50.848;4.584;2023-03-01T08:09:49;16.80;;;11.37;;
22973;SDS011;11653;50.848;4.584;2023-03-01T08:12:15;12.63;;;10.43;;
22973;SDS011;11653;50.848;4.584;2023-03-01T08:14:44;14.00;;;10.43;;
22973;SDS011;11653;50.848;4.584;2023-03-01T08:17:09;13.70;;;10.93;;
22973;SDS011;11653;50.848;4.584;2023-03-01T08:19:35;15.53;;;10.97;;
22973;SDS011;11653;50.848;4.584;2023-03-01T08:22:01;14.60;;;10.33;;
22973;SDS011;11653;50.848;4.584;2023-03-01T08:24:27;16.70;;;11.00;;
22973;SDS011;11653;50.848;4.584;2023-03-01T08:26:53;13.93;;;10.53;;
22973;SDS011;11653;50.848;4.584;2023-03-01T08:29:20;14.80;;;10.60;;
22973;SDS011;11653;50.848;4.584;2023-03-01T08:31:46;15.00;;;10.63;;
22973;SDS011;11653;50.848;4.584;2023-03-01T08:34:13;14.87;;;11.20;;
22973;SDS011;11653;50.848;4.584;2023-03-01T08:36:41;14.20;;;10.30;;
22973;SDS011;11653;50.848;4.584;2023-03-01T08:39:09;15.33;;;10.60;;
22973;SDS011;11653;50.848;4.584;2023-03-01T08:41:36;14.93;;;10.70;;
22973;SDS011;11653;50.848;4.584;2023-03-01T08:44:02;13.70;;;10.30;;
22973;SDS011;11653;50.848;4.584;2023-03-01T08:46:29;15.20;;;10.50;;
22973;SDS011;11653;50.848;4.584;2023-03-01T08:48:57;14.13;;;10.77;;
22973;SDS011;11653;50.848;4.584;2023-03-01T08:51:23;15.77;;;10.97;;
22973;SDS011;11653;50.848;4.584;2023-03-01T08:53:50;16.23;;;10.50;;
22973;SDS011;11653;50.848;4.584;2023-03-01T08:56:16;16.27;;;10.63;;
22973;SDS011;11653;50.848;4.584;2023-03-01T08:58:43;13.80;;;10.33;;
22973;SDS011;11653;50.848;4.584;2023-03-01T09:01:10;16.70;;;10.20;;
22973;SDS011;11653;50.848;4.584;2023-03-01T09:03:37;16.73;;;10.30;;
22973;SDS011;11653;50.848;4.584;2023-03-01T09:06:04;16.97;;;10.80;;
22973;SDS011;11653;50.848;4.584;2023-03-01T09:08:34;16.30;;;12.13;;
22973;SDS011;11653;50.848;4.584;2023-03-01T09:11:04;14.13;;;10.50;;
22973;SDS011;11653;50.848;4.584;2023-03-01T09:13:31;17.63;;;10.77;;
22973;SDS011;11653;50.848;4.584;2023-03-01T09:15:57;17.37;;;10.70;;
22973;SDS011;11653;50.848;4.584;2023-03-01T09:18:23;13.83;;;10.53;;
22973;SDS011;11653;50.848;4.584;2023-03-01T09:20:49;13.00;;;10.13;;
22973;SDS011;11653;50.848;4.584;2023-03-01T09:23:15;14.93;;;10.53;;
22973;SDS011;11653;50.848;4.584;2023-03-01T09:25:40;16.13;;;10.47;;
22973;SDS011;11653;50.848;4.584;2023-03-01T09:28:06;16.57;;;11.13;;
22973;SDS011;11653;50.848;4.584;2023-03-01T09:30:32;13.80;;;10.57;;
22973;SDS011;11653;50.848;4.584;2023-03-01T09:32:57;15.30;;;11.37;;
22973;SDS011;11653;50.848;4.584;2023-03-01T09:35:23;14.00;;;11.00;;
22973;SDS011;11653;50.848;4.584;2023-03-01T09:37:49;16.40;;;11.50;;
22973;SDS011;11653;50.848;4.584;2023-03-01T09:40:21;15.07;;;10.60;;
22973;SDS011;11653;50.848;4.584;2023-03-01T09:43:00;16.57;;;10.93;;
22973;SDS011;11653;50.848;4.584;2023-03-01T09:45:37;20.53;;;10.97;;
22973;SDS011;11653;50.848;4.584;2023-03-01T09:48:18;18.50;;;11.60;;
22973;SDS011;11653;50.848;4.584;2023-03-01T09:50:48;13.90;;;10.87;;
22973;SDS011;11653;50.848;4.584;2023-03-01T09:53:16;15.50;;;10.50;;
22973;SDS011;11653;50.848;4.584;2023-03-01T09:55:57;13.23;;;10.93;;
22973;SDS011;11653;50.848;4.584;2023-03-01T10:01:23;14.77;;;10.80;;
22973;SDS011;11653;50.848;4.584;2023-03-01T10:09:53;17.63;;;11.10;;
22973;SDS011;11653;50.848;4.584;2023-03-01T10:12:23;14.23;;;10.60;;
22973;SDS011;11653;50.848;4.584;2023-03-01T10:17:23;18.47;;;11.73;;
22973;SDS011;11653;50.848;4.584;2023-03-01T10:19:55;19.57;;;11.90;;
22973;SDS011;11653;50.848;4.584;2023-03-01T10:22:44;16.80;;;11.60;;
22973;SDS011;11653;50.848;4.584;2023-03-01T10:25:26;17.83;;;11.87;;
22973;SDS011;11653;50.848;4.584;2023-03-01T10:30:47;16.63;;;11.03;;
22973;SDS011;11653;50.848;4.584;2023-03-01T10:35:47;15.53;;;10.57;;
22973;SDS011;11653;50.848;4.584;2023-03-01T10:38:14;16.90;;;10.87;;
22973;SDS011;11653;50.848;4.584;2023-03-01T10:43:24;17.73;;;11.27;;
22973;SDS011;11653;50.848;4.584;2023-03-01T10:45:52;22.07;;;12.27;;
22973;SDS011;11653;50.848;4.584;2023-03-01T10:50:51;16.10;;;11.47;;
22973;SDS011;11653;50.848;4.584;2023-03-01T10:58:35;16.70;;;11.67;;
22973;SDS011;11653;50.848;4.584;2023-03-01T11:01:03;17.53;;;11.70;;
22973;SDS011;11653;50.848;4.584;2023-03-01T11:03:33;16.70;;;11.30;;
22973;SDS011;11653;50.848;4.584;2023-03-01T11:08:39;13.83;;;9.90;;
22973;SDS011;11653;50.848;4.584;2023-03-01T11:11:22;15.93;;;10.70;;
22973;SDS011;11653;50.848;4.584;2023-03-01T11:13:57;17.67;;;10.47;;
22973;SDS011;11653;50.848;4.584;2023-03-01T11:16:40;14.13;;;10.43;;
22973;SDS011;11653;50.848;4.584;2023-03-01T11:21:34;15.83;;;10.53;;
22973;SDS011;11653;50.848;4.584;2023-03-01T11:24:08;15.50;;;9.97;;
22973;SDS011;11653;50.848;4.584;2023-03-01T11:26:39;15.40;;;10.03;;
22973;SDS011;11653;50.848;4.584;2023-03-01T11:29:12;12.47;;;9.10;;
22973;SDS011;11653;50.848;4.584;2023-03-01T11:32:03;17.50;;;10.30;;
22973;SDS011;11653;50.848;4.584;2023-03-01T11:34:37;13.70;;;9.83;;
22973;SDS011;11653;50.848;4.584;2023-03-01T11:37:33;16.40;;;10.97;;
22973;SDS011;11653;50.848;4.584;2023-03-01T12:02:43;15.73;;;10.43;;
22973;SDS011;11653;50.848;4.584;2023-03-01T12:08:12;14.30;;;10.43;;
22973;SDS011;11653;50.848;4.584;2023-03-01T12:10:55;16.90;;;10.67;;
22973;SDS011;11653;50.848;4.584;2023-03-01T12:24:28;13.83;;;10.00;;
22973;SDS011;11653;50.848;4.584;2023-03-01T12:49:41;12.23;;;9.90;;
22973;SDS011;11653;50.848;4.584;2023-03-01T12:52:21;14.17;;;9.93;;
22973;SDS011;11653;50.848;4.584;2023-03-01T12:54:55;11.97;;;9.23;;
22973;SDS011;11653;50.848;4.584;2023-03-01T12:57:26;12.30;;;9.30;;
22973;SDS011;11653;50.848;4.584;2023-03-01T13:05:54;13.13;;;10.17;;
22973;SDS011;11653;50.848;4.584;2023-03-01T13:08:44;13.03;;;9.57;;
22973;SDS011;11653;50.848;4.584;2023-03-01T13:11:31;12.43;;;9.20;;
22973;SDS011;11653;50.848;4.584;2023-03-01T13:14:34;13.77;;;9.00;;
22973;SDS011;11653;50.848;4.584;2023-03-01T13:16:45;12.43;;;9.17;;
22973;SDS011;11653;50.848;4.584;2023-03-01T13:19:17;12.47;;;9.57;;
22973;SDS011;11653;50.848;4.584;2023-03-01T13:21:57;12.17;;;9.50;;
22973;SDS011;11653;50.848;4.584;2023-03-01T13:24:24;12.40;;;9.13;;
22973;SDS011;11653;50.848;4.584;2023-03-01T13:34:54;15.83;;;10.07;;
22973;SDS011;11653;50.848;4.584;2023-03-01T13:37:23;13.47;;;9.77;;
22973;SDS011;11653;50.848;4.584;2023-03-01T13:39:51;9.67;;;7.13;;
22973;SDS011;11653;50.848;4.584;2023-03-01T13:42:34;17.33;;;10.97;;
22973;SDS011;11653;50.848;4.584;2023-03-01T13:45:14;16.23;;;10.87;;
22973;SDS011;11653;50.848;4.584;2023-03-01T13:47:46;15.00;;;9.77;;
22973;SDS011;11653;50.848;4.584;2023-03-01T13:50:18;15.87;;;11.27;;
22973;SDS011;11653;50.848;4.584;2023-03-01T13:52:55;16.13;;;10.63;;
22973;SDS011;11653;50.848;4.584;2023-03-01T13:58:01;15.43;;;9.63;;
22973;SDS011;11653;50.848;4.584;2023-03-01T14:00:38;16.17;;;11.53;;
22973;SDS011;11653;50.848;4.584;2023-03-01T14:05:40;16.67;;;11.20;;
22973;SDS011;11653;50.848;4.584;2023-03-01T14:08:20;16.97;;;10.40;;
22973;SDS011;11653;50.848;4.584;2023-03-01T14:10:52;18.27;;;10.23;;
22973;SDS011;11653;50.848;4.584;2023-03-01T14:13:28;16.23;;;10.57;;
22973;SDS011;11653;50.848;4.584;2023-03-01T14:21:17;27.13;;;13.10;;
22973;SDS011;11653;50.848;4.584;2023-03-01T14:23:43;15.77;;;9.90;;
22973;SDS011;11653;50.848;4.584;2023-03-01T14:26:09;17.23;;;10.63;;
22973;SDS011;11653;50.848;4.584;2023-03-01T14:28:37;14.73;;;10.03;;
22973;SDS011;11653;50.848;4.584;2023-03-01T14:31:36;15.70;;;10.07;;
22973;SDS011;11653;50.848;4.584;2023-03-01T14:33:58;15.53;;;10.10;;
22973;SDS011;11653;50.848;4.584;2023-03-01T14:36:27;15.23;;;9.87;;
22973;SDS011;11653;50.848;4.584;2023-03-01T14:38:54;14.53;;;9.83;;
22973;SDS011;11653;50.848;4.584;2023-03-01T14:41:21;16.83;;;10.50;;
22973;SDS011;11653;50.848;4.584;2023-03-01T14:43:51;15.30;;;9.83;;
22973;SDS011;11653;50.848;4.584;2023-03-01T14:46:20;17.30;;;11.27;;
22973;SDS011;11653;50.848;4.584;2023-03-01T14:48:53;17.67;;;9.90;;
22973;SDS011;11653;50.848;4.584;2023-03-01T14:51:23;15.03;;;10.50;;
22973;SDS011;11653;50.848;4.584;2023-03-01T14:53:49;14.87;;;9.50;;
22973;SDS011;11653;50.848;4.584;2023-03-01T14:56:16;15.87;;;10.00;;
22973;SDS011;11653;50.848;4.584;2023-03-01T14:58:43;16.53;;;9.67;;
22973;SDS011;11653;50.848;4.584;2023-03-01T15:01:10;15.77;;;9.47;;
22973;SDS011;11653;50.848;4.584;2023-03-01T15:03:45;13.70;;;9.60;;
22973;SDS011;11653;50.848;4.584;2023-03-01T15:06:20;19.00;;;9.60;;
22973;SDS011;11653;50.848;4.584;2023-03-01T15:08:48;14.07;;;9.73;;
22973;SDS011;11653;50.848;4.584;2023-03-01T15:11:20;12.60;;;8.17;;
22973;SDS011;11653;50.848;4.584;2023-03-01T15:13:53;14.93;;;8.93;;
22973;SDS011;11653;50.848;4.584;2023-03-01T15:16:23;13.90;;;8.83;;
22973;SDS011;11653;50.848;4.584;2023-03-01T15:18:54;21.67;;;14.00;;
22973;SDS011;11653;50.848;4.584;2023-03-01T15:21:36;18.20;;;9.97;;
22973;SDS011;11653;50.848;4.584;2023-03-01T15:24:07;18.90;;;10.63;;
22973;SDS011;11653;50.848;4.584;2023-03-01T15:26:44;19.40;;;11.10;;
22973;SDS011;11653;50.848;4.584;2023-03-01T15:29:19;13.63;;;9.00;;
22973;SDS011;11653;50.848;4.584;2023-03-01T15:32:05;14.50;;;9.60;;
22973;SDS011;11653;50.848;4.584;2023-03-01T15:34:47;17.73;;;9.73;;
22973;SDS011;11653;50.848;4.584;2023-03-01T15:40:24;15.20;;;7.80;;
22973;SDS011;11653;50.848;4.584;2023-03-01T15:42:57;14.73;;;8.83;;
22973;SDS011;11653;50.848;4.584;2023-03-01T15:45:28;14.47;;;8.37;;
22973;SDS011;11653;50.848;4.584;2023-03-01T15:47:56;12.90;;;9.27;;
22973;SDS011;11653;50.848;4.584;2023-03-01T15:50:30;12.70;;;9.13;;
22973;SDS011;11653;50.848;4.584;2023-03-01T15:53:01;16.77;;;9.27;;
22973;SDS011;11653;50.848;4.584;2023-03-01T15:55:32;15.73;;;8.67;;
22973;SDS011;11653;50.848;4.584;2023-03-01T16:00:41;14.13;;;8.93;;
22973;SDS011;11653;50.848;4.584;2023-03-01T16:03:08;16.90;;;8.73;;
22973;SDS011;11653;50.848;4.584;2023-03-01T16:05:37;16.50;;;9.77;;
22973;SDS011;11653;50.848;4.584;2023-03-01T16:08:04;17.80;;;11.40;;
22973;SDS011;11653;50.848;4.584;2023-03-01T16:10:31;10.50;;;7.33;;
22973;SDS011;11653;50.848;4.584;2023-03-01T16:12:59;16.27;;;10.03;;
22973;SDS011;11653;50.848;4.584;2023-03-01T16:15:29;11.17;;;8.00;;
22973;SDS011;11653;50.848;4.584;2023-03-01T16:17:57;12.27;;;8.07;;
22973;SDS011;11653;50.848;4.584;2023-03-01T16:20:26;13.60;;;8.87;;
22973;SDS011;11653;50.848;4.584;2023-03-01T16:22:52;14.80;;;9.67;;
22973;SDS011;11653;50.848;4.584;2023-03-01T16:25:19;18.40;;;9.53;;
22973;SDS011;11653;50.848;4.584;2023-03-01T16:27:48;13.63;;;9.00;;
22973;SDS011;11653;50.848;4.584;2023-03-01T16:30:28;14.97;;;9.10;;
22973;SDS011;11653;50.848;4.584;2023-03-01T16:32:54;17.43;;;9.73;;
22973;SDS011;11653;50.848;4.584;2023-03-01T16:35:20;15.80;;;9.50;;
22973;SDS011;11653;50.848;4.584;2023-03-01T16:37:48;14.00;;;8.53;;
22973;SDS011;11653;50.848;4.584;2023-03-01T16:40:21;17.73;;;9.40;;